KOLF/OLF METAR and TAF weather

Enter ICAO airport designator
Station Type Date Time Source
KOLF METAR 2019/05/21 19:53 UTC NOAA

KOLF 211953Z AUTO 09015KT 10SM BKN044 OVC090 13/03 A2995 RMK AO2 SLP147 T01330033


Station Type Date Time Source
KOLF Decoded METAR 2019/05/21 19:53 UTC NOAA

WOLF POINT CLAYTON AIRPORT, MT, United States (KOLF) 48-06N 105-35W 604M
May 21, 2019 - 03:53 PM EDT / 2019.05.21 1953 UTC
Wind: from the E (090 degrees) at 17 MPH (15 KT):0
Visibility: 10 mile(s):0
Sky conditions: overcast
Temperature: 55.9 F (13.3 C)
Dew Point: 37.9 F (3.3 C)
Relative Humidity: 50%
Pressure (altimeter): 29.95 in. Hg (1014 hPa)
ob: KOLF 211953Z AUTO 09015KT 10SM BKN044 OVC090 13/03 A2995 RMK AO2 SLP147 T01330033
cycle: 20

Station Type Date Time Source
KOLF TAF 2019/05/21 18:22 UTC NOAA

TAF KOLF 211720Z 2118/2218 11016KT P6SM VCSH SCT028 OVC050
TEMPO 2118/2120 BKN028
FM212100 11016KT P6SM OVC040
FM221500 04015G24KT P6SM BKN090

Example: see airport list